JST456 YSSY-YMML
Flight info
| Callsign | JST456 |
|---|---|
| Flight time | 1h 15m |
| Altitude | 38000 |
| Route | GROOK1/16R WOL H65 LEECE Q29 ML |
| Aircraft | A20N/M-SDE2E3FGHIRWXY/LB1 |
Departure
| Time | 2026-05-05 06:42 |
|---|---|
| Airport | Sydney Kingsford Smith International Airport (YSSY) |
Arrival
| Time | 2026-05-05 07:58 |
|---|---|
| Airport | Melbourne Airport (YMML) |
| Time | Latitude | Longitude | Altitude | Speed | Heading |
|---|---|---|---|---|---|
| 2026-05-05 06:14 | -33.93861 | 151.16965 | 27 ft | 0 kts | 253° |
| 2026-05-05 06:30 | -33.93859 | 151.16976 | 25 ft | 2 kts | 263° |
| 2026-05-05 06:31 | -33.93857 | 151.16995 | 25 ft | 2 kts | 222° |
| 2026-05-05 06:31 | -33.93846 | 151.17010 | 25 ft | 2 kts | 248° |
| 2026-05-05 06:31 | -33.93840 | 151.17028 | 24 ft | 2 kts | 233° |
| 2026-05-05 06:31 | -33.93828 | 151.17043 | 28 ft | 2 kts | 235° |
| 2026-05-05 06:32 | -33.93818 | 151.17058 | 27 ft | 2 kts | 202° |
| 2026-05-05 06:32 | -33.93811 | 151.17060 | 25 ft | 0 kts | 173° |
| 2026-05-05 06:33 | -33.93813 | 151.17060 | 25 ft | 0 kts | 172° |
| 2026-05-05 06:33 | -33.93815 | 151.17061 | 27 ft | 0 kts | 172° |
| 2026-05-05 06:35 | -33.93822 | 151.17062 | 27 ft | 5 kts | 169° |
| 2026-05-05 06:35 | -33.93827 | 151.17062 | 25 ft | 0 kts | 188° |
| 2026-05-05 06:35 | -33.93830 | 151.17058 | 26 ft | 1 kts | 233° |
| 2026-05-05 06:35 | -33.93826 | 151.17051 | 26 ft | 1 kts | 319° |
| 2026-05-05 06:36 | -33.93787 | 151.17054 | 24 ft | 11 kts | 355° |
| 2026-05-05 06:36 | -33.93734 | 151.17062 | 27 ft | 6 kts | 30° |
| 2026-05-05 06:36 | -33.93719 | 151.17084 | 26 ft | 2 kts | 65° |
| 2026-05-05 06:36 | -33.93706 | 151.17114 | 26 ft | 5 kts | 58° |
| 2026-05-05 06:37 | -33.93685 | 151.17136 | 26 ft | 3 kts | 27° |
| 2026-05-05 06:37 | -33.93642 | 151.17138 | 27 ft | 7 kts | 353° |
| 2026-05-05 06:37 | -33.93596 | 151.17127 | 27 ft | 7 kts | 349° |
| 2026-05-05 06:37 | -33.93550 | 151.17115 | 27 ft | 7 kts | 347° |
| 2026-05-05 06:38 | -33.93502 | 151.17103 | 23 ft | 7 kts | 348° |
| 2026-05-05 06:38 | -33.93426 | 151.17083 | 26 ft | 19 kts | 348° |
| 2026-05-05 06:38 | -33.93306 | 151.17023 | 24 ft | 17 kts | 314° |
| 2026-05-05 06:38 | -33.93221 | 151.16954 | 25 ft | 13 kts | 347° |
| 2026-05-05 06:39 | -33.93137 | 151.16932 | 28 ft | 12 kts | 348° |
| 2026-05-05 06:39 | -33.93057 | 151.16911 | 25 ft | 11 kts | 349° |
| 2026-05-05 06:39 | -33.93002 | 151.16925 | 24 ft | 6 kts | 37° |
| 2026-05-05 06:39 | -33.92984 | 151.16954 | 24 ft | 2 kts | 71° |
| 2026-05-05 06:40 | -33.92980 | 151.16970 | 23 ft | 0 kts | 72° |
| 2026-05-05 06:40 | -33.92979 | 151.16976 | 23 ft | 2 kts | 76° |
| 2026-05-05 06:40 | -33.92977 | 151.16982 | 23 ft | 1 kts | 77° |
| 2026-05-05 06:40 | -33.92972 | 151.17015 | 24 ft | 8 kts | 78° |
| 2026-05-05 06:41 | -33.92961 | 151.17109 | 23 ft | 12 kts | 97° |
| 2026-05-05 06:41 | -33.93020 | 151.17180 | 22 ft | 11 kts | 169° |
| 2026-05-05 06:41 | -33.93159 | 151.17215 | 26 ft | 46 kts | 168° |
| 2026-05-05 06:41 | -33.93710 | 151.17359 | 19 ft | 114 kts | 167° |
| 2026-05-05 06:42 | -33.94650 | 151.17599 | 183 ft | 149 kts | 168° |
| 2026-05-05 06:42 | -33.95669 | 151.17853 | 855 ft | 153 kts | 167° |
| 2026-05-05 06:42 | -33.96715 | 151.17930 | 1772 ft | 152 kts | 183° |
| 2026-05-05 06:42 | -33.97860 | 151.17832 | 2279 ft | 180 kts | 184° |
| 2026-05-05 06:43 | -33.99177 | 151.17721 | 2816 ft | 197 kts | 185° |
| 2026-05-05 06:43 | -34.00588 | 151.17626 | 3656 ft | 206 kts | 184° |
| 2026-05-05 06:43 | -34.02030 | 151.17553 | 4437 ft | 208 kts | 182° |
| 2026-05-05 06:43 | -34.03483 | 151.17765 | 4877 ft | 214 kts | 170° |
| 2026-05-05 06:44 | -34.04944 | 151.18209 | 4989 ft | 217 kts | 167° |
| 2026-05-05 06:44 | -34.06400 | 151.18705 | 4998 ft | 218 kts | 167° |
| 2026-05-05 06:44 | -34.07840 | 151.19199 | 4997 ft | 218 kts | 167° |
| 2026-05-05 06:44 | -34.09297 | 151.19695 | 4996 ft | 217 kts | 167° |
| 2026-05-05 06:45 | -34.10755 | 151.20187 | 4997 ft | 217 kts | 168° |
| 2026-05-05 06:45 | -34.12216 | 151.20677 | 5002 ft | 217 kts | 167° |
| 2026-05-05 06:45 | -34.13667 | 151.21163 | 5003 ft | 216 kts | 167° |
| 2026-05-05 06:45 | -34.15109 | 151.21646 | 5001 ft | 214 kts | 166° |
| 2026-05-05 06:46 | -34.16549 | 151.22127 | 5001 ft | 215 kts | 168° |
| 2026-05-05 06:46 | -34.18004 | 151.22466 | 4999 ft | 211 kts | 179° |
| 2026-05-05 06:46 | -34.19457 | 151.22370 | 4998 ft | 208 kts | 193° |
| 2026-05-05 06:46 | -34.20799 | 151.21783 | 5001 ft | 208 kts | 210° |
| 2026-05-05 06:47 | -34.21956 | 151.20737 | 5008 ft | 208 kts | 224° |
| 2026-05-05 06:47 | -34.22939 | 151.19451 | 5008 ft | 208 kts | 229° |
| 2026-05-05 06:47 | -34.23879 | 151.18122 | 5016 ft | 208 kts | 229° |
| 2026-05-05 06:47 | -34.24818 | 151.16784 | 5010 ft | 209 kts | 229° |
| 2026-05-05 06:48 | -34.25766 | 151.15441 | 5013 ft | 209 kts | 229° |
| 2026-05-05 06:48 | -34.26712 | 151.14101 | 5007 ft | 208 kts | 228° |
| 2026-05-05 06:48 | -34.27640 | 151.12790 | 5015 ft | 208 kts | 229° |
| 2026-05-05 06:48 | -34.28583 | 151.11459 | 5015 ft | 209 kts | 229° |
| 2026-05-05 06:49 | -34.29527 | 151.10129 | 5014 ft | 208 kts | 229° |
| 2026-05-05 06:49 | -34.30469 | 151.08801 | 5015 ft | 208 kts | 229° |
| 2026-05-05 06:49 | -34.31412 | 151.07471 | 5015 ft | 209 kts | 229° |
| 2026-05-05 06:49 | -34.32361 | 151.06132 | 5022 ft | 210 kts | 228° |
| 2026-05-05 06:50 | -34.33311 | 151.04791 | 5019 ft | 210 kts | 228° |
| 2026-05-05 06:50 | -34.34259 | 151.03450 | 5105 ft | 212 kts | 228° |
| 2026-05-05 06:50 | -34.35239 | 151.02067 | 5752 ft | 219 kts | 229° |
| 2026-05-05 06:50 | -34.36230 | 151.00669 | 6794 ft | 218 kts | 229° |
| 2026-05-05 06:51 | -34.37235 | 150.99325 | 7840 ft | 214 kts | 226° |
| 2026-05-05 06:51 | -34.38326 | 150.98075 | 8777 ft | 218 kts | 224° |
| 2026-05-05 06:51 | -34.39465 | 150.96834 | 9542 ft | 221 kts | 224° |
| 2026-05-05 06:51 | -34.40605 | 150.95603 | 9935 ft | 222 kts | 224° |
| 2026-05-05 06:52 | -34.41768 | 150.94347 | 10021 ft | 223 kts | 225° |
| 2026-05-05 06:52 | -34.42927 | 150.93093 | 10108 ft | 224 kts | 225° |
| 2026-05-05 06:52 | -34.44092 | 150.91831 | 10124 ft | 224 kts | 225° |
| 2026-05-05 06:52 | -34.45269 | 150.90552 | 10137 ft | 239 kts | 225° |
| 2026-05-05 06:53 | -34.46607 | 150.89090 | 10116 ft | 276 kts | 224° |
| 2026-05-05 06:53 | -34.48072 | 150.87495 | 10125 ft | 287 kts | 224° |
| 2026-05-05 06:53 | -34.49552 | 150.85891 | 10179 ft | 290 kts | 223° |
| 2026-05-05 06:53 | -34.51085 | 150.84227 | 10505 ft | 304 kts | 223° |
| 2026-05-05 06:54 | -34.52690 | 150.82481 | 11283 ft | 313 kts | 223° |
| 2026-05-05 06:54 | -34.54320 | 150.80707 | 12282 ft | 314 kts | 224° |
| 2026-05-05 06:54 | -34.55867 | 150.78839 | 13282 ft | 316 kts | 230° |
| 2026-05-05 06:54 | -34.57294 | 150.76774 | 13973 ft | 321 kts | 233° |
| 2026-05-05 06:55 | -34.58652 | 150.74605 | 14631 ft | 325 kts | 234° |
| 2026-05-05 06:55 | -34.59991 | 150.72360 | 15297 ft | 324 kts | 236° |
| 2026-05-05 06:55 | -34.61221 | 150.70267 | 15978 ft | 287 kts | 236° |
| 2026-05-05 06:55 | -34.62378 | 150.68293 | 16681 ft | 295 kts | 236° |
| 2026-05-05 06:56 | -34.63587 | 150.66237 | 17401 ft | 303 kts | 236° |
| 2026-05-05 06:56 | -34.64833 | 150.64133 | 18120 ft | 310 kts | 236° |
| 2026-05-05 06:56 | -34.66112 | 150.61988 | 18805 ft | 317 kts | 236° |
| 2026-05-05 06:56 | -34.67424 | 150.59799 | 19461 ft | 323 kts | 236° |
| 2026-05-05 06:57 | -34.68760 | 150.57577 | 20117 ft | 327 kts | 236° |
| 2026-05-05 06:57 | -34.70112 | 150.55338 | 20813 ft | 330 kts | 236° |
| 2026-05-05 06:57 | -34.71476 | 150.53072 | 21513 ft | 334 kts | 236° |
| 2026-05-05 06:57 | -34.72853 | 150.50776 | 22238 ft | 337 kts | 236° |
| 2026-05-05 06:58 | -34.74238 | 150.48466 | 22972 ft | 339 kts | 236° |
| 2026-05-05 06:58 | -34.75627 | 150.46146 | 23721 ft | 340 kts | 237° |
| 2026-05-05 06:58 | -34.77019 | 150.43820 | 24362 ft | 339 kts | 237° |
| 2026-05-05 06:58 | -34.78407 | 150.41501 | 25011 ft | 338 kts | 237° |
| 2026-05-05 06:59 | -34.79768 | 150.39226 | 25668 ft | 336 kts | 237° |
| 2026-05-05 06:59 | -34.81138 | 150.36933 | 26365 ft | 333 kts | 238° |
| 2026-05-05 06:59 | -34.82494 | 150.34663 | 27061 ft | 329 kts | 238° |
| 2026-05-05 06:59 | -34.83832 | 150.32423 | 27763 ft | 324 kts | 238° |
| 2026-05-05 07:00 | -34.85144 | 150.30225 | 28506 ft | 318 kts | 239° |
| 2026-05-05 07:00 | -34.86427 | 150.28078 | 29263 ft | 310 kts | 239° |
| 2026-05-05 07:00 | -34.87682 | 150.25980 | 30036 ft | 302 kts | 240° |
| 2026-05-05 07:00 | -34.88899 | 150.23942 | 30725 ft | 291 kts | 240° |
| 2026-05-05 07:01 | -34.90051 | 150.22016 | 31379 ft | 279 kts | 241° |
| 2026-05-05 07:01 | -34.91164 | 150.20158 | 32063 ft | 263 kts | 242° |
| 2026-05-05 07:01 | -34.92204 | 150.18427 | 32745 ft | 243 kts | 244° |
| 2026-05-05 07:01 | -34.93163 | 150.16831 | 33168 ft | 232 kts | 245° |
| 2026-05-05 07:02 | -34.94137 | 150.15107 | 32391 ft | 268 kts | 244° |
| 2026-05-05 07:02 | -34.95261 | 150.13062 | 31564 ft | 310 kts | 242° |
| 2026-05-05 07:02 | -34.96550 | 150.10829 | 31361 ft | 330 kts | 240° |
| 2026-05-05 07:02 | -34.97921 | 150.08533 | 31480 ft | 339 kts | 239° |
| 2026-05-05 07:03 | -34.99340 | 150.06190 | 31619 ft | 348 kts | 239° |
| 2026-05-05 07:03 | -35.00791 | 150.03791 | 31745 ft | 355 kts | 239° |
| 2026-05-05 07:03 | -35.02253 | 150.01357 | 31891 ft | 363 kts | 239° |
| 2026-05-05 07:03 | -35.03776 | 149.98805 | 32024 ft | 371 kts | 239° |
| 2026-05-05 07:04 | -35.05280 | 149.96268 | 32159 ft | 378 kts | 239° |
| 2026-05-05 07:04 | -35.06832 | 149.93639 | 32295 ft | 385 kts | 239° |
| 2026-05-05 07:04 | -35.08411 | 149.90959 | 32428 ft | 392 kts | 239° |
| 2026-05-05 07:04 | -35.10020 | 149.88226 | 32557 ft | 399 kts | 239° |
| 2026-05-05 07:05 | -35.11656 | 149.85444 | 32685 ft | 406 kts | 239° |
| 2026-05-05 07:05 | -35.13319 | 149.82616 | 32838 ft | 413 kts | 239° |
| 2026-05-05 07:05 | -35.15006 | 149.79746 | 33043 ft | 417 kts | 239° |
| 2026-05-05 07:05 | -35.16712 | 149.76847 | 33214 ft | 422 kts | 239° |
| 2026-05-05 07:06 | -35.18414 | 149.73951 | 33468 ft | 425 kts | 239° |
| 2026-05-05 07:06 | -35.20140 | 149.71014 | 33833 ft | 426 kts | 239° |
| 2026-05-05 07:06 | -35.21867 | 149.68073 | 34210 ft | 425 kts | 239° |
| 2026-05-05 07:06 | -35.23590 | 149.65135 | 34544 ft | 424 kts | 239° |
| 2026-05-05 07:07 | -35.25310 | 149.62198 | 34878 ft | 423 kts | 239° |
| 2026-05-05 07:07 | -35.27018 | 149.59278 | 35239 ft | 422 kts | 239° |
| 2026-05-05 07:07 | -35.28726 | 149.56356 | 35616 ft | 420 kts | 239° |
| 2026-05-05 07:07 | -35.30421 | 149.53453 | 35952 ft | 418 kts | 239° |
| 2026-05-05 07:08 | -35.32113 | 149.50549 | 36241 ft | 418 kts | 239° |
| 2026-05-05 07:08 | -35.33230 | 149.48630 | 36422 ft | 418 kts | 239° |
| 2026-05-05 07:08 | -35.35473 | 149.44776 | 36784 ft | 418 kts | 239° |
| 2026-05-05 07:08 | -35.37159 | 149.41875 | 37053 ft | 418 kts | 240° |
| 2026-05-05 07:09 | -35.38847 | 149.38970 | 37326 ft | 417 kts | 240° |
| 2026-05-05 07:09 | -35.39964 | 149.37048 | 37506 ft | 417 kts | 240° |
| 2026-05-05 07:09 | -35.41644 | 149.34153 | 37770 ft | 417 kts | 240° |
| 2026-05-05 07:09 | -35.43322 | 149.31260 | 38069 ft | 416 kts | 240° |
| 2026-05-05 07:10 | -35.45002 | 149.28357 | 38151 ft | 418 kts | 240° |
| 2026-05-05 07:10 | -35.48369 | 149.22539 | 38154 ft | 417 kts | 240° |
| 2026-05-05 07:11 | -35.51700 | 149.16773 | 38152 ft | 417 kts | 240° |
| 2026-05-05 07:11 | -35.55048 | 149.10968 | 38149 ft | 416 kts | 240° |
| 2026-05-05 07:12 | -35.58391 | 149.05163 | 38148 ft | 416 kts | 240° |
| 2026-05-05 07:12 | -35.61735 | 148.99348 | 38145 ft | 415 kts | 240° |
| 2026-05-05 07:13 | -35.65045 | 148.93579 | 38143 ft | 415 kts | 240° |
| 2026-05-05 07:13 | -35.68372 | 148.87768 | 38156 ft | 416 kts | 240° |
| 2026-05-05 07:14 | -35.71696 | 148.81955 | 38159 ft | 415 kts | 240° |
| 2026-05-05 07:14 | -35.75014 | 148.76146 | 38156 ft | 415 kts | 240° |
| 2026-05-05 07:15 | -35.78327 | 148.70333 | 38162 ft | 415 kts | 240° |
| 2026-05-05 07:15 | -35.81642 | 148.64508 | 38178 ft | 415 kts | 240° |
| 2026-05-05 07:16 | -35.84950 | 148.58686 | 38186 ft | 415 kts | 240° |
| 2026-05-05 07:16 | -35.88260 | 148.52850 | 38179 ft | 414 kts | 240° |
| 2026-05-05 07:17 | -35.91525 | 148.47065 | 38187 ft | 413 kts | 240° |
| 2026-05-05 07:17 | -35.94803 | 148.41239 | 38186 ft | 413 kts | 240° |
| 2026-05-05 07:18 | -35.98075 | 148.35415 | 38198 ft | 413 kts | 240° |
| 2026-05-05 07:18 | -36.01349 | 148.29579 | 38193 ft | 412 kts | 240° |
| 2026-05-05 07:19 | -36.04609 | 148.23763 | 38201 ft | 412 kts | 240° |
| 2026-05-05 07:19 | -36.07870 | 148.17933 | 38201 ft | 412 kts | 239° |
| 2026-05-05 07:20 | -36.11109 | 148.12130 | 38200 ft | 413 kts | 239° |
| 2026-05-05 07:20 | -36.14372 | 148.06290 | 38200 ft | 413 kts | 239° |
| 2026-05-05 07:21 | -36.17644 | 148.00438 | 38196 ft | 412 kts | 239° |
| 2026-05-05 07:21 | -36.20887 | 147.94630 | 38198 ft | 409 kts | 239° |
| 2026-05-05 07:22 | -36.24118 | 147.88831 | 38201 ft | 409 kts | 239° |
| 2026-05-05 07:22 | -36.27342 | 147.83031 | 38207 ft | 409 kts | 239° |
| 2026-05-05 07:23 | -36.30567 | 147.77220 | 38199 ft | 408 kts | 239° |
| 2026-05-05 07:23 | -36.33783 | 147.71415 | 38200 ft | 408 kts | 239° |
| 2026-05-05 07:24 | -36.36990 | 147.65601 | 38205 ft | 408 kts | 239° |
| 2026-05-05 07:24 | -36.40181 | 147.59808 | 38203 ft | 408 kts | 239° |
| 2026-05-05 07:25 | -36.43391 | 147.53971 | 38207 ft | 409 kts | 239° |
| 2026-05-05 07:25 | -36.46594 | 147.48135 | 38204 ft | 409 kts | 239° |
| 2026-05-05 07:26 | -36.49794 | 147.42298 | 38204 ft | 409 kts | 239° |
| 2026-05-05 07:26 | -36.52998 | 147.36446 | 38203 ft | 409 kts | 239° |
| 2026-05-05 07:27 | -36.56191 | 147.30599 | 38205 ft | 409 kts | 239° |
| 2026-05-05 07:27 | -36.59388 | 147.24738 | 38205 ft | 410 kts | 239° |
| 2026-05-05 07:28 | -36.62585 | 147.18864 | 38207 ft | 409 kts | 239° |
| 2026-05-05 07:28 | -36.65776 | 147.12992 | 38208 ft | 409 kts | 239° |
| 2026-05-05 07:29 | -36.68949 | 147.07142 | 38208 ft | 409 kts | 239° |
| 2026-05-05 07:29 | -36.72138 | 147.01256 | 38212 ft | 410 kts | 239° |
| 2026-05-05 07:30 | -36.75324 | 146.95364 | 38208 ft | 409 kts | 239° |
| 2026-05-05 07:30 | -36.78502 | 146.89474 | 37843 ft | 406 kts | 239° |
| 2026-05-05 07:30 | -36.80062 | 146.86582 | 37641 ft | 397 kts | 239° |
| 2026-05-05 07:31 | -36.81571 | 146.83784 | 37453 ft | 387 kts | 239° |
| 2026-05-05 07:31 | -36.83055 | 146.81027 | 37248 ft | 378 kts | 239° |
| 2026-05-05 07:31 | -36.84507 | 146.78327 | 36985 ft | 371 kts | 239° |
| 2026-05-05 07:31 | -36.85937 | 146.75667 | 36630 ft | 367 kts | 238° |
| 2026-05-05 07:32 | -36.87352 | 146.73030 | 36258 ft | 363 kts | 238° |
| 2026-05-05 07:32 | -36.88753 | 146.70416 | 35902 ft | 360 kts | 238° |
| 2026-05-05 07:32 | -36.90141 | 146.67822 | 35543 ft | 357 kts | 238° |
| 2026-05-05 07:32 | -36.91518 | 146.65249 | 35190 ft | 354 kts | 238° |
| 2026-05-05 07:33 | -36.92877 | 146.62706 | 34848 ft | 351 kts | 237° |
| 2026-05-05 07:33 | -36.94224 | 146.60181 | 34493 ft | 348 kts | 237° |
| 2026-05-05 07:33 | -36.95563 | 146.57672 | 34153 ft | 345 kts | 237° |
| 2026-05-05 07:33 | -36.96876 | 146.55213 | 33765 ft | 342 kts | 236° |
| 2026-05-05 07:34 | -36.98192 | 146.52746 | 33372 ft | 339 kts | 236° |
| 2026-05-05 07:34 | -36.99495 | 146.50303 | 32982 ft | 336 kts | 236° |
| 2026-05-05 07:34 | -37.00788 | 146.47877 | 32611 ft | 334 kts | 236° |
| 2026-05-05 07:34 | -37.02070 | 146.45469 | 32240 ft | 331 kts | 236° |
| 2026-05-05 07:35 | -37.03343 | 146.43079 | 31869 ft | 329 kts | 236° |
| 2026-05-05 07:35 | -37.04605 | 146.40706 | 31497 ft | 327 kts | 236° |
| 2026-05-05 07:35 | -37.05857 | 146.38349 | 31159 ft | 324 kts | 235° |
| 2026-05-05 07:35 | -37.07112 | 146.35985 | 30588 ft | 329 kts | 235° |
| 2026-05-05 07:36 | -37.08397 | 146.33564 | 29737 ft | 340 kts | 235° |
| 2026-05-05 07:36 | -37.09728 | 146.31057 | 28789 ft | 351 kts | 235° |
| 2026-05-05 07:36 | -37.11104 | 146.28462 | 27819 ft | 363 kts | 235° |
| 2026-05-05 07:36 | -37.12527 | 146.25776 | 26865 ft | 374 kts | 235° |
| 2026-05-05 07:37 | -37.13395 | 146.24136 | 26295 ft | 381 kts | 235° |
| 2026-05-05 07:37 | -37.14829 | 146.21424 | 25345 ft | 391 kts | 235° |
| 2026-05-05 07:37 | -37.16351 | 146.18543 | 24363 ft | 401 kts | 235° |
| 2026-05-05 07:38 | -37.17890 | 146.15628 | 23277 ft | 411 kts | 235° |
| 2026-05-05 07:38 | -37.19485 | 146.12602 | 22084 ft | 419 kts | 236° |
| 2026-05-05 07:38 | -37.21111 | 146.09515 | 20837 ft | 427 kts | 236° |
| 2026-05-05 07:38 | -37.22754 | 146.06392 | 19778 ft | 431 kts | 236° |
| 2026-05-05 07:39 | -37.24401 | 146.03256 | 18901 ft | 429 kts | 236° |
| 2026-05-05 07:39 | -37.26035 | 146.00145 | 18036 ft | 425 kts | 236° |
| 2026-05-05 07:39 | -37.27643 | 145.97077 | 17458 ft | 415 kts | 236° |
| 2026-05-05 07:39 | -37.29191 | 145.94120 | 17249 ft | 396 kts | 236° |
| 2026-05-05 07:40 | -37.30666 | 145.91303 | 17226 ft | 374 kts | 236° |
| 2026-05-05 07:40 | -37.32054 | 145.88653 | 17222 ft | 353 kts | 236° |
| 2026-05-05 07:40 | -37.33373 | 145.86140 | 17225 ft | 335 kts | 236° |
| 2026-05-05 07:40 | -37.34623 | 145.83766 | 17223 ft | 316 kts | 236° |
| 2026-05-05 07:41 | -37.35800 | 145.81526 | 17230 ft | 299 kts | 236° |
| 2026-05-05 07:41 | -37.36915 | 145.79396 | 17226 ft | 284 kts | 236° |
| 2026-05-05 07:41 | -37.37958 | 145.77402 | 17223 ft | 269 kts | 236° |
| 2026-05-05 07:41 | -37.38958 | 145.75488 | 17225 ft | 255 kts | 236° |
| 2026-05-05 07:42 | -37.39919 | 145.73650 | 17229 ft | 249 kts | 236° |
| 2026-05-05 07:42 | -37.40869 | 145.71835 | 17222 ft | 249 kts | 236° |
| 2026-05-05 07:42 | -37.41821 | 145.70015 | 17222 ft | 249 kts | 236° |
| 2026-05-05 07:42 | -37.42774 | 145.68192 | 17222 ft | 249 kts | 236° |
| 2026-05-05 07:43 | -37.43725 | 145.66370 | 17221 ft | 249 kts | 236° |
| 2026-05-05 07:43 | -37.44608 | 145.64488 | 17223 ft | 250 kts | 241° |
| 2026-05-05 07:43 | -37.45325 | 145.62495 | 17224 ft | 250 kts | 250° |
| 2026-05-05 07:43 | -37.45456 | 145.60326 | 17246 ft | 252 kts | 273° |
| 2026-05-05 07:44 | -37.45304 | 145.58129 | 17157 ft | 253 kts | 272° |
| 2026-05-05 07:44 | -37.45163 | 145.55919 | 16819 ft | 253 kts | 271° |
| 2026-05-05 07:44 | -37.45059 | 145.53695 | 16300 ft | 259 kts | 270° |
| 2026-05-05 07:44 | -37.44988 | 145.51368 | 15622 ft | 272 kts | 269° |
| 2026-05-05 07:45 | -37.44938 | 145.48964 | 14945 ft | 284 kts | 269° |
| 2026-05-05 07:45 | -37.44896 | 145.46425 | 14296 ft | 294 kts | 268° |
| 2026-05-05 07:45 | -37.44859 | 145.43829 | 13780 ft | 297 kts | 268° |
| 2026-05-05 07:45 | -37.44824 | 145.41231 | 13330 ft | 296 kts | 268° |
| 2026-05-05 07:46 | -37.44790 | 145.38647 | 12895 ft | 294 kts | 268° |
| 2026-05-05 07:46 | -37.44758 | 145.36085 | 12476 ft | 292 kts | 268° |
| 2026-05-05 07:46 | -37.44725 | 145.33539 | 12069 ft | 290 kts | 268° |
| 2026-05-05 07:46 | -37.44692 | 145.31010 | 11655 ft | 288 kts | 268° |
| 2026-05-05 07:47 | -37.44659 | 145.28488 | 11244 ft | 287 kts | 268° |
| 2026-05-05 07:47 | -37.44626 | 145.25996 | 10789 ft | 282 kts | 268° |
| 2026-05-05 07:47 | -37.44593 | 145.23590 | 10490 ft | 266 kts | 268° |
| 2026-05-05 07:47 | -37.44560 | 145.21323 | 10060 ft | 254 kts | 268° |
| 2026-05-05 07:48 | -37.44530 | 145.19126 | 9440 ft | 249 kts | 268° |
| 2026-05-05 07:48 | -37.44502 | 145.16960 | 8809 ft | 246 kts | 269° |
| 2026-05-05 07:48 | -37.44472 | 145.14813 | 8199 ft | 243 kts | 269° |
| 2026-05-05 07:48 | -37.44443 | 145.12695 | 7593 ft | 241 kts | 269° |
| 2026-05-05 07:49 | -37.44414 | 145.10592 | 6998 ft | 239 kts | 270° |
| 2026-05-05 07:49 | -37.44384 | 145.08508 | 6377 ft | 237 kts | 270° |
| 2026-05-05 07:49 | -37.44353 | 145.06436 | 5729 ft | 236 kts | 270° |
| 2026-05-05 07:49 | -37.44323 | 145.04412 | 5126 ft | 234 kts | 271° |
| 2026-05-05 07:50 | -37.44292 | 145.02379 | 4522 ft | 231 kts | 270° |
| 2026-05-05 07:50 | -37.44261 | 145.00372 | 3921 ft | 228 kts | 270° |
| 2026-05-05 07:50 | -37.44209 | 144.98382 | 3333 ft | 228 kts | 274° |
| 2026-05-05 07:50 | -37.43675 | 144.96519 | 3019 ft | 227 kts | 307° |
| 2026-05-05 07:51 | -37.42461 | 144.95439 | 2998 ft | 208 kts | 322° |
| 2026-05-05 07:51 | -37.41773 | 144.93949 | 3071 ft | 196 kts | 272° |
| 2026-05-05 07:51 | -37.42154 | 144.92386 | 3081 ft | 188 kts | 234° |
| 2026-05-05 07:51 | -37.43046 | 144.91189 | 3077 ft | 188 kts | 223° |
| 2026-05-05 07:52 | -37.44002 | 144.90080 | 2995 ft | 187 kts | 221° |
| 2026-05-05 07:52 | -37.44968 | 144.89004 | 3009 ft | 188 kts | 224° |
| 2026-05-05 07:52 | -37.45756 | 144.87687 | 3190 ft | 189 kts | 238° |
| 2026-05-05 07:52 | -37.46411 | 144.86315 | 3418 ft | 174 kts | 239° |
| 2026-05-05 07:53 | -37.47007 | 144.85053 | 3601 ft | 162 kts | 238° |
| 2026-05-05 07:53 | -37.47662 | 144.83917 | 3581 ft | 162 kts | 224° |
| 2026-05-05 07:53 | -37.48542 | 144.82961 | 3395 ft | 172 kts | 216° |
| 2026-05-05 07:53 | -37.49576 | 144.82214 | 3389 ft | 170 kts | 208° |
| 2026-05-05 07:54 | -37.50576 | 144.81469 | 3475 ft | 161 kts | 217° |
| 2026-05-05 07:54 | -37.51432 | 144.80606 | 3730 ft | 155 kts | 217° |
| 2026-05-05 07:54 | -37.52449 | 144.80203 | 3667 ft | 163 kts | 170° |
| 2026-05-05 07:54 | -37.53510 | 144.80802 | 3614 ft | 172 kts | 156° |
| 2026-05-05 07:55 | -37.54614 | 144.81405 | 3533 ft | 170 kts | 161° |
| 2026-05-05 07:55 | -37.55710 | 144.81798 | 3374 ft | 161 kts | 172° |
| 2026-05-05 07:55 | -37.56465 | 144.81919 | 3024 ft | 169 kts | 175° |
| 2026-05-05 07:55 | -37.58028 | 144.82163 | 2374 ft | 166 kts | 173° |
| 2026-05-05 07:56 | -37.58781 | 144.82310 | 2092 ft | 163 kts | 173° |
| 2026-05-05 07:56 | -37.59880 | 144.82494 | 1788 ft | 158 kts | 174° |
| 2026-05-05 07:56 | -37.60969 | 144.82695 | 1538 ft | 160 kts | 172° |
| 2026-05-05 07:56 | -37.62408 | 144.82964 | 1236 ft | 157 kts | 174° |
| 2026-05-05 07:57 | -37.63131 | 144.83113 | 1018 ft | 155 kts | 173° |
| 2026-05-05 07:57 | -37.64549 | 144.83368 | 655 ft | 157 kts | 175° |
| 2026-05-05 07:57 | -37.65261 | 144.83489 | 519 ft | 154 kts | 174° |
| 2026-05-05 07:57 | -37.66293 | 144.83674 | 400 ft | 127 kts | 172° |
| 2026-05-05 07:58 | -37.66793 | 144.83766 | 391 ft | 34 kts | 171° |
| 2026-05-05 07:58 | -37.67018 | 144.83854 | 384 ft | 29 kts | 150° |
| 2026-05-05 07:58 | -37.67170 | 144.83995 | 376 ft | 16 kts | 141° |
| 2026-05-05 07:58 | -37.67181 | 144.84005 | 376 ft | 0 kts | 142° |
| 2026-05-05 08:00 | -37.67192 | 144.84016 | 375 ft | 13 kts | 143° |
| 2026-05-05 08:00 | -37.67245 | 144.84061 | 373 ft | 9 kts | 155° |
| 2026-05-05 08:01 | -37.67305 | 144.84078 | 375 ft | 9 kts | 169° |
| 2026-05-05 08:01 | -37.67413 | 144.84099 | 368 ft | 24 kts | 172° |
| 2026-05-05 08:01 | -37.67585 | 144.84132 | 363 ft | 26 kts | 172° |
| 2026-05-05 08:01 | -37.67757 | 144.84163 | 359 ft | 22 kts | 171° |
| 2026-05-05 08:02 | -37.67854 | 144.84238 | 359 ft | 11 kts | 99° |
| 2026-05-05 08:02 | -37.67845 | 144.84353 | 358 ft | 20 kts | 81° |
| 2026-05-05 08:02 | -37.67829 | 144.84481 | 357 ft | 6 kts | 81° |
| 2026-05-05 08:02 | -37.67821 | 144.84540 | 355 ft | 11 kts | 78° |
| 2026-05-05 08:03 | -37.67809 | 144.84577 | 359 ft | 8 kts | 44° |
| 2026-05-05 08:03 | -37.67766 | 144.84611 | 356 ft | 6 kts | 30° |
| 2026-05-05 08:03 | -37.67738 | 144.84631 | 358 ft | 3 kts | 32° |
| 2026-05-05 08:03 | -37.67724 | 144.84620 | 360 ft | 7 kts | 309° |
| 2026-05-05 08:04 | -37.67700 | 144.84591 | 362 ft | 1 kts | 355° |
| 2026-05-05 08:04 | -37.67686 | 144.84609 | 358 ft | 3 kts | 68° |
| 2026-05-05 08:04 | -37.67680 | 144.84759 | 353 ft | 17 kts | 89° |
| 2026-05-05 08:04 | -37.67674 | 144.84834 | 352 ft | 5 kts | 82° |
| 2026-05-05 08:05 | -37.67661 | 144.84858 | 354 ft | 3 kts | 42° |
| 2026-05-05 08:05 | -37.67653 | 144.84861 | 358 ft | 1 kts | 1° |
| 2026-05-05 08:05 | -37.67640 | 144.84854 | 357 ft | 1 kts | 338° |
| 2026-05-05 08:05 | -37.67626 | 144.84849 | 357 ft | 0 kts | 349° |
| 2026-05-05 08:06 | -37.67616 | 144.84846 | 355 ft | 0 kts | 346° |